HAL1006 PHNL-PHOG
Flight info
| Callsign | HAL1006 |
|---|---|
| Flight time | 0h 29m |
| Altitude | 13000 |
| Route | PALAY3 LNY CAMPS4 |
| Aircraft | MD82/M-SDFGIRWY/S |
Departure
| Time | 2026-04-15 05:32 |
|---|---|
| Airport | Daniel K. Inouye International Airport (PHNL) |
Arrival
| Time | 2026-04-15 06:01 |
|---|---|
| Airport | Kahului International Airport (PHOG) |
| Time | Latitude | Longitude | Altitude | Speed | Heading |
|---|---|---|---|---|---|
| 2026-04-15 04:54 | 21.33312 | -157.92463 | 25 ft | 0 kts | 98° |
| 2026-04-15 05:18 | 21.33315 | -157.92477 | 25 ft | 4 kts | 98° |
| 2026-04-15 05:18 | 21.33319 | -157.92505 | 25 ft | 4 kts | 106° |
| 2026-04-15 05:18 | 21.33328 | -157.92522 | 26 ft | 4 kts | 162° |
| 2026-04-15 05:18 | 21.33346 | -157.92522 | 25 ft | 4 kts | 187° |
| 2026-04-15 05:19 | 21.33365 | -157.92519 | 25 ft | 0 kts | 187° |
| 2026-04-15 05:24 | 21.33356 | -157.92520 | 25 ft | 3 kts | 187° |
| 2026-04-15 05:25 | 21.33327 | -157.92524 | 26 ft | 7 kts | 187° |
| 2026-04-15 05:25 | 21.33242 | -157.92537 | 25 ft | 15 kts | 187° |
| 2026-04-15 05:25 | 21.33141 | -157.92574 | 25 ft | 16 kts | 219° |
| 2026-04-15 05:25 | 21.33050 | -157.92637 | 26 ft | 15 kts | 222° |
| 2026-04-15 05:26 | 21.32973 | -157.92720 | 26 ft | 16 kts | 225° |
| 2026-04-15 05:26 | 21.32887 | -157.92802 | 26 ft | 17 kts | 204° |
| 2026-04-15 05:26 | 21.32780 | -157.92808 | 25 ft | 14 kts | 182° |
| 2026-04-15 05:26 | 21.32749 | -157.92827 | 28 ft | 6 kts | 243° |
| 2026-04-15 05:27 | 21.32743 | -157.92888 | 25 ft | 10 kts | 270° |
| 2026-04-15 05:27 | 21.32743 | -157.92982 | 27 ft | 17 kts | 270° |
| 2026-04-15 05:27 | 21.32744 | -157.93111 | 25 ft | 18 kts | 270° |
| 2026-04-15 05:27 | 21.32743 | -157.93245 | 27 ft | 18 kts | 270° |
| 2026-04-15 05:28 | 21.32743 | -157.93386 | 26 ft | 19 kts | 270° |
| 2026-04-15 05:28 | 21.32742 | -157.93534 | 25 ft | 20 kts | 270° |
| 2026-04-15 05:28 | 21.32742 | -157.93686 | 25 ft | 21 kts | 270° |
| 2026-04-15 05:28 | 21.32742 | -157.93844 | 25 ft | 21 kts | 270° |
| 2026-04-15 05:29 | 21.32742 | -157.94006 | 25 ft | 22 kts | 270° |
| 2026-04-15 05:29 | 21.32742 | -157.94171 | 25 ft | 22 kts | 270° |
| 2026-04-15 05:29 | 21.32741 | -157.94298 | 26 ft | 7 kts | 258° |
| 2026-04-15 05:29 | 21.32706 | -157.94325 | 25 ft | 7 kts | 189° |
| 2026-04-15 05:30 | 21.32653 | -157.94327 | 26 ft | 8 kts | 180° |
| 2026-04-15 05:30 | 21.32590 | -157.94327 | 28 ft | 10 kts | 180° |
| 2026-04-15 05:30 | 21.32534 | -157.94316 | 26 ft | 6 kts | 135° |
| 2026-04-15 05:30 | 21.32527 | -157.94285 | 27 ft | 5 kts | 90° |
| 2026-04-15 05:31 | 21.32527 | -157.94280 | 27 ft | 0 kts | 89° |
| 2026-04-15 05:31 | 21.32528 | -157.94108 | 25 ft | 64 kts | 90° |
| 2026-04-15 05:31 | 21.32525 | -157.93379 | 25 ft | 130 kts | 90° |
| 2026-04-15 05:31 | 21.32517 | -157.92200 | 84 ft | 181 kts | 90° |
| 2026-04-15 05:32 | 21.32489 | -157.90859 | 928 ft | 177 kts | 97° |
| 2026-04-15 05:32 | 21.32070 | -157.89611 | 1713 ft | 182 kts | 130° |
| 2026-04-15 05:32 | 21.31062 | -157.88928 | 2477 ft | 186 kts | 172° |
| 2026-04-15 05:32 | 21.29757 | -157.89215 | 2955 ft | 200 kts | 198° |
| 2026-04-15 05:33 | 21.28335 | -157.89617 | 3169 ft | 227 kts | 189° |
| 2026-04-15 05:33 | 21.26754 | -157.89889 | 3792 ft | 229 kts | 187° |
| 2026-04-15 05:33 | 21.25159 | -157.90164 | 4418 ft | 236 kts | 188° |
| 2026-04-15 05:33 | 21.23498 | -157.90464 | 4922 ft | 248 kts | 188° |
| 2026-04-15 05:34 | 21.21749 | -157.90787 | 5393 ft | 262 kts | 188° |
| 2026-04-15 05:34 | 21.19910 | -157.91122 | 5884 ft | 274 kts | 188° |
| 2026-04-15 05:34 | 21.18024 | -157.91457 | 6440 ft | 281 kts | 186° |
| 2026-04-15 05:34 | 21.16058 | -157.91313 | 7145 ft | 282 kts | 158° |
| 2026-04-15 05:35 | 21.14471 | -157.90178 | 7887 ft | 281 kts | 128° |
| 2026-04-15 05:35 | 21.13589 | -157.88331 | 8466 ft | 284 kts | 100° |
| 2026-04-15 05:35 | 21.13419 | -157.86215 | 9118 ft | 287 kts | 91° |
| 2026-04-15 05:35 | 21.13358 | -157.84070 | 9731 ft | 289 kts | 91° |
| 2026-04-15 05:36 | 21.13277 | -157.81889 | 10187 ft | 300 kts | 92° |
| 2026-04-15 05:36 | 21.13163 | -157.79587 | 10362 ft | 319 kts | 94° |
| 2026-04-15 05:36 | 21.13003 | -157.77148 | 10556 ft | 337 kts | 95° |
| 2026-04-15 05:36 | 21.12781 | -157.74579 | 10802 ft | 353 kts | 97° |
| 2026-04-15 05:37 | 21.12499 | -157.71945 | 11348 ft | 358 kts | 98° |
| 2026-04-15 05:37 | 21.12189 | -157.69299 | 12002 ft | 360 kts | 99° |
| 2026-04-15 05:37 | 21.11859 | -157.66628 | 12531 ft | 366 kts | 99° |
| 2026-04-15 05:37 | 21.11517 | -157.63899 | 12772 ft | 372 kts | 99° |
| 2026-04-15 05:38 | 21.11168 | -157.61154 | 12898 ft | 369 kts | 100° |
| 2026-04-15 05:38 | 21.10827 | -157.58464 | 12951 ft | 364 kts | 101° |
| 2026-04-15 05:38 | 21.10120 | -157.55901 | 12986 ft | 357 kts | 119° |
| 2026-04-15 05:38 | 21.08901 | -157.53600 | 12998 ft | 354 kts | 124° |
| 2026-04-15 05:39 | 21.07594 | -157.51371 | 13002 ft | 353 kts | 125° |
| 2026-04-15 05:39 | 21.06276 | -157.49152 | 13009 ft | 354 kts | 125° |
| 2026-04-15 05:39 | 21.04954 | -157.46931 | 13012 ft | 354 kts | 125° |
| 2026-04-15 05:39 | 21.03639 | -157.44707 | 13013 ft | 354 kts | 124° |
| 2026-04-15 05:40 | 21.02335 | -157.42474 | 13018 ft | 354 kts | 124° |
| 2026-04-15 05:40 | 21.01046 | -157.40236 | 13014 ft | 354 kts | 124° |
| 2026-04-15 05:40 | 20.99765 | -157.37986 | 13022 ft | 354 kts | 123° |
| 2026-04-15 05:40 | 20.98489 | -157.35733 | 13022 ft | 354 kts | 123° |
| 2026-04-15 05:41 | 20.97217 | -157.33479 | 13024 ft | 354 kts | 123° |
| 2026-04-15 05:41 | 20.95946 | -157.31225 | 13018 ft | 354 kts | 123° |
| 2026-04-15 05:41 | 20.94675 | -157.28972 | 13027 ft | 354 kts | 123° |
| 2026-04-15 05:41 | 20.93403 | -157.26720 | 13030 ft | 354 kts | 123° |
| 2026-04-15 05:42 | 20.92126 | -157.24465 | 13028 ft | 354 kts | 123° |
| 2026-04-15 05:42 | 20.90863 | -157.22245 | 13025 ft | 354 kts | 123° |
| 2026-04-15 05:42 | 20.89581 | -157.19994 | 13028 ft | 354 kts | 123° |
| 2026-04-15 05:42 | 20.88301 | -157.17742 | 13031 ft | 354 kts | 123° |
| 2026-04-15 05:43 | 20.87020 | -157.15491 | 13029 ft | 354 kts | 123° |
| 2026-04-15 05:43 | 20.85740 | -157.13240 | 13032 ft | 354 kts | 123° |
| 2026-04-15 05:43 | 20.84461 | -157.10990 | 13041 ft | 354 kts | 123° |
| 2026-04-15 05:43 | 20.83182 | -157.08741 | 13047 ft | 354 kts | 123° |
| 2026-04-15 05:44 | 20.81903 | -157.06493 | 13047 ft | 354 kts | 123° |
| 2026-04-15 05:44 | 20.80624 | -157.04246 | 12839 ft | 353 kts | 123° |
| 2026-04-15 05:44 | 20.79360 | -157.02023 | 12462 ft | 348 kts | 123° |
| 2026-04-15 05:44 | 20.78101 | -156.99814 | 12015 ft | 348 kts | 123° |
| 2026-04-15 05:45 | 20.76842 | -156.97608 | 11480 ft | 345 kts | 122° |
| 2026-04-15 05:45 | 20.75869 | -156.95298 | 10881 ft | 339 kts | 109° |
| 2026-04-15 05:45 | 20.75205 | -156.92927 | 10555 ft | 325 kts | 106° |
| 2026-04-15 05:45 | 20.74638 | -156.90689 | 10394 ft | 300 kts | 105° |
| 2026-04-15 05:46 | 20.74117 | -156.88615 | 10241 ft | 279 kts | 105° |
| 2026-04-15 05:46 | 20.73628 | -156.86662 | 10132 ft | 268 kts | 105° |
| 2026-04-15 05:46 | 20.73137 | -156.84715 | 10033 ft | 277 kts | 105° |
| 2026-04-15 05:46 | 20.72620 | -156.82707 | 9662 ft | 281 kts | 106° |
| 2026-04-15 05:47 | 20.72091 | -156.80698 | 9225 ft | 280 kts | 106° |
| 2026-04-15 05:47 | 20.71556 | -156.78713 | 8824 ft | 276 kts | 105° |
| 2026-04-15 05:47 | 20.71023 | -156.76759 | 8426 ft | 272 kts | 105° |
| 2026-04-15 05:47 | 20.70492 | -156.74809 | 7835 ft | 274 kts | 105° |
| 2026-04-15 05:48 | 20.69969 | -156.72867 | 7308 ft | 269 kts | 105° |
| 2026-04-15 05:48 | 20.69459 | -156.70964 | 6832 ft | 263 kts | 105° |
| 2026-04-15 05:48 | 20.68959 | -156.69101 | 6541 ft | 256 kts | 105° |
| 2026-04-15 05:48 | 20.68472 | -156.67311 | 6281 ft | 247 kts | 105° |
| 2026-04-15 05:49 | 20.67999 | -156.65581 | 6095 ft | 239 kts | 105° |
| 2026-04-15 05:49 | 20.67537 | -156.63891 | 5992 ft | 236 kts | 104° |
| 2026-04-15 05:49 | 20.67346 | -156.62152 | 5929 ft | 238 kts | 85° |
| 2026-04-15 05:49 | 20.67731 | -156.60430 | 5821 ft | 243 kts | 62° |
| 2026-04-15 05:50 | 20.68407 | -156.59465 | 5684 ft | 249 kts | 43° |
| 2026-04-15 05:50 | 20.69763 | -156.58295 | 5581 ft | 251 kts | 39° |
| 2026-04-15 05:50 | 20.72613 | -156.56370 | 4998 ft | 246 kts | 11° |
| 2026-04-15 05:51 | 20.74325 | -156.56525 | 4528 ft | 254 kts | 335° |
| 2026-04-15 05:51 | 20.76032 | -156.58229 | 3884 ft | 264 kts | 301° |
| 2026-04-15 05:51 | 20.76624 | -156.59365 | 3866 ft | 254 kts | 298° |
| 2026-04-15 05:51 | 20.77366 | -156.61077 | 3698 ft | 254 kts | 288° |
| 2026-04-15 05:52 | 20.77659 | -156.62925 | 3303 ft | 251 kts | 268° |
| 2026-04-15 05:52 | 20.77324 | -156.64701 | 2998 ft | 244 kts | 244° |
| 2026-04-15 05:52 | 20.76360 | -156.66132 | 2845 ft | 234 kts | 222° |
| 2026-04-15 05:52 | 20.75086 | -156.67217 | 2535 ft | 232 kts | 210° |
| 2026-04-15 05:53 | 20.73645 | -156.67857 | 2333 ft | 226 kts | 184° |
| 2026-04-15 05:53 | 20.72181 | -156.67455 | 2141 ft | 218 kts | 140° |
| 2026-04-15 05:53 | 20.71144 | -156.66295 | 2078 ft | 211 kts | 131° |
| 2026-04-15 05:53 | 20.70219 | -156.65134 | 2129 ft | 200 kts | 131° |
| 2026-04-15 05:54 | 20.69338 | -156.64025 | 2170 ft | 191 kts | 130° |
| 2026-04-15 05:54 | 20.68527 | -156.62938 | 2195 ft | 186 kts | 121° |
| 2026-04-15 05:54 | 20.68047 | -156.61680 | 2217 ft | 183 kts | 103° |
| 2026-04-15 05:54 | 20.68043 | -156.60331 | 2271 ft | 181 kts | 80° |
| 2026-04-15 05:55 | 20.68606 | -156.59136 | 2162 ft | 186 kts | 40° |
| 2026-04-15 05:55 | 20.69619 | -156.58372 | 2313 ft | 179 kts | 33° |
| 2026-04-15 05:55 | 20.70621 | -156.57596 | 2271 ft | 176 kts | 39° |
| 2026-04-15 05:55 | 20.71572 | -156.56775 | 2239 ft | 176 kts | 39° |
| 2026-04-15 05:56 | 20.72497 | -156.55996 | 2226 ft | 163 kts | 38° |
| 2026-04-15 05:56 | 20.73345 | -156.55308 | 2227 ft | 149 kts | 38° |
| 2026-04-15 05:56 | 20.74203 | -156.54618 | 2221 ft | 159 kts | 38° |
| 2026-04-15 05:56 | 20.75096 | -156.53927 | 2212 ft | 157 kts | 36° |
| 2026-04-15 05:57 | 20.75992 | -156.53259 | 2206 ft | 155 kts | 36° |
| 2026-04-15 05:57 | 20.76867 | -156.52606 | 2202 ft | 153 kts | 36° |
| 2026-04-15 05:57 | 20.77694 | -156.51983 | 2194 ft | 136 kts | 35° |
| 2026-04-15 05:57 | 20.78451 | -156.51432 | 2253 ft | 132 kts | 35° |
| 2026-04-15 05:58 | 20.79209 | -156.50863 | 2230 ft | 134 kts | 35° |
| 2026-04-15 05:58 | 20.79981 | -156.50293 | 2216 ft | 135 kts | 35° |
| 2026-04-15 05:58 | 20.80747 | -156.49729 | 2086 ft | 134 kts | 36° |
| 2026-04-15 05:58 | 20.81505 | -156.49165 | 1852 ft | 129 kts | 35° |
| 2026-04-15 05:59 | 20.82239 | -156.48608 | 1643 ft | 133 kts | 35° |
| 2026-04-15 05:59 | 20.82991 | -156.48044 | 1458 ft | 129 kts | 33° |
| 2026-04-15 05:59 | 20.83725 | -156.47503 | 1295 ft | 129 kts | 33° |
| 2026-04-15 05:59 | 20.84467 | -156.46950 | 1161 ft | 131 kts | 32° |
| 2026-04-15 06:00 | 20.85223 | -156.46392 | 1002 ft | 129 kts | 32° |
| 2026-04-15 06:00 | 20.85950 | -156.45852 | 816 ft | 127 kts | 32° |
| 2026-04-15 06:00 | 20.86704 | -156.45286 | 641 ft | 136 kts | 32° |
| 2026-04-15 06:00 | 20.87443 | -156.44734 | 451 ft | 130 kts | 32° |
| 2026-04-15 06:01 | 20.88179 | -156.44177 | 256 ft | 128 kts | 33° |
| 2026-04-15 06:01 | 20.88901 | -156.43643 | 86 ft | 126 kts | 33° |
| 2026-04-15 06:01 | 20.89540 | -156.43171 | 47 ft | 69 kts | 35° |
| 2026-04-15 06:01 | 20.89727 | -156.43030 | 45 ft | 21 kts | 35° |
| 2026-04-15 06:02 | 20.89856 | -156.42935 | 44 ft | 20 kts | 34° |
| 2026-04-15 06:02 | 20.89959 | -156.42883 | 44 ft | 14 kts | 353° |
| 2026-04-15 06:02 | 20.90012 | -156.42949 | 45 ft | 12 kts | 267° |
| 2026-04-15 06:02 | 20.89960 | -156.43014 | 45 ft | 12 kts | 214° |
| 2026-04-15 06:03 | 20.89884 | -156.43070 | 43 ft | 14 kts | 214° |
| 2026-04-15 06:03 | 20.89801 | -156.43132 | 44 ft | 15 kts | 216° |
| 2026-04-15 06:03 | 20.89711 | -156.43201 | 44 ft | 17 kts | 215° |
| 2026-04-15 06:03 | 20.89614 | -156.43275 | 46 ft | 18 kts | 215° |
| 2026-04-15 06:04 | 20.89508 | -156.43353 | 43 ft | 19 kts | 213° |
| 2026-04-15 06:04 | 20.89404 | -156.43430 | 44 ft | 15 kts | 216° |
| 2026-04-15 06:04 | 20.89345 | -156.43476 | 46 ft | 8 kts | 221° |
| 2026-04-15 06:04 | 20.89317 | -156.43532 | 44 ft | 9 kts | 278° |
| 2026-04-15 06:05 | 20.89346 | -156.43588 | 43 ft | 5 kts | 304° |
| 2026-04-15 06:05 | 20.89357 | -156.43605 | 44 ft | 1 kts | 304° |
| 2026-04-15 06:05 | 20.89360 | -156.43610 | 45 ft | 0 kts | 304° |